sensor_id;sensor_type;location;lat;lon;timestamp;P1;durP1;ratioP1;P2;durP2;ratioP2
52508;SDS011;38420;53.150;6.370;2023-05-31T00:00:47;7.28;;;3.42;;
52508;SDS011;38420;53.150;6.370;2023-05-31T00:03:13;7.05;;;3.97;;
52508;SDS011;38420;53.150;6.370;2023-05-31T00:05:38;7.50;;;3.88;;
52508;SDS011;38420;53.150;6.370;2023-05-31T00:08:04;11.45;;;3.88;;
52508;SDS011;38420;53.150;6.370;2023-05-31T00:10:30;8.32;;;3.95;;
52508;SDS011;38420;53.150;6.370;2023-05-31T00:12:56;10.00;;;4.28;;
52508;SDS011;38420;53.150;6.370;2023-05-31T00:15:21;12.45;;;4.43;;
52508;SDS011;38420;53.150;6.370;2023-05-31T00:17:47;6.43;;;3.17;;
52508;SDS011;38420;53.150;6.370;2023-05-31T00:20:13;10.50;;;3.72;;
52508;SDS011;38420;53.150;6.370;2023-05-31T00:22:38;7.75;;;4.07;;
52508;SDS011;38420;53.150;6.370;2023-05-31T00:25:04;10.98;;;4.53;;
52508;SDS011;38420;53.150;6.370;2023-05-31T00:27:30;7.82;;;3.88;;
52508;SDS011;38420;53.150;6.370;2023-05-31T00:29:55;7.80;;;4.10;;
52508;SDS011;38420;53.150;6.370;2023-05-31T00:32:21;8.38;;;4.18;;
52508;SDS011;38420;53.150;6.370;2023-05-31T00:34:46;7.32;;;3.67;;
52508;SDS011;38420;53.150;6.370;2023-05-31T00:37:12;11.50;;;4.70;;
52508;SDS011;38420;53.150;6.370;2023-05-31T00:39:37;11.18;;;3.58;;
52508;SDS011;38420;53.150;6.370;2023-05-31T00:42:03;7.60;;;4.03;;
52508;SDS011;38420;53.150;6.370;2023-05-31T00:44:30;9.57;;;4.53;;
52508;SDS011;38420;53.150;6.370;2023-05-31T00:46:55;14.60;;;5.07;;
52508;SDS011;38420;53.150;6.370;2023-05-31T00:49:21;7.70;;;4.00;;
52508;SDS011;38420;53.150;6.370;2023-05-31T00:51:47;7.68;;;3.55;;
52508;SDS011;38420;53.150;6.370;2023-05-31T00:54:12;9.27;;;3.80;;
52508;SDS011;38420;53.150;6.370;2023-05-31T00:56:38;8.05;;;4.22;;
52508;SDS011;38420;53.150;6.370;2023-05-31T00:59:04;10.50;;;4.53;;
52508;SDS011;38420;53.150;6.370;2023-05-31T01:01:30;11.85;;;4.57;;
52508;SDS011;38420;53.150;6.370;2023-05-31T01:03:59;10.77;;;4.93;;
52508;SDS011;38420;53.150;6.370;2023-05-31T01:06:24;13.75;;;5.43;;
52508;SDS011;38420;53.150;6.370;2023-05-31T01:08:55;7.63;;;4.10;;
52508;SDS011;38420;53.150;6.370;2023-05-31T01:17:26;11.57;;;4.55;;
52508;SDS011;38420;53.150;6.370;2023-05-31T01:20:10;14.02;;;4.70;;
52508;SDS011;38420;53.150;6.370;2023-05-31T01:28:45;8.25;;;4.68;;
52508;SDS011;38420;53.150;6.370;2023-05-31T01:31:16;9.95;;;4.80;;
52508;SDS011;38420;53.150;6.370;2023-05-31T01:33:44;8.88;;;4.25;;
52508;SDS011;38420;53.150;6.370;2023-05-31T01:36:11;8.93;;;4.72;;
52508;SDS011;38420;53.150;6.370;2023-05-31T01:38:37;8.63;;;4.32;;
52508;SDS011;38420;53.150;6.370;2023-05-31T01:41:02;9.27;;;5.22;;
52508;SDS011;38420;53.150;6.370;2023-05-31T01:43:31;9.15;;;4.45;;
52508;SDS011;38420;53.150;6.370;2023-05-31T01:45:59;11.32;;;4.78;;
52508;SDS011;38420;53.150;6.370;2023-05-31T01:48:25;9.40;;;5.05;;
52508;SDS011;38420;53.150;6.370;2023-05-31T01:50:53;9.75;;;4.47;;
52508;SDS011;38420;53.150;6.370;2023-05-31T01:53:20;10.50;;;5.60;;
52508;SDS011;38420;53.150;6.370;2023-05-31T01:55:46;8.55;;;5.10;;
52508;SDS011;38420;53.150;6.370;2023-05-31T01:58:13;11.98;;;4.65;;
52508;SDS011;38420;53.150;6.370;2023-05-31T02:00:40;10.07;;;4.28;;
52508;SDS011;38420;53.150;6.370;2023-05-31T02:03:06;11.48;;;5.22;;
52508;SDS011;38420;53.150;6.370;2023-05-31T02:05:32;11.45;;;5.03;;
52508;SDS011;38420;53.150;6.370;2023-05-31T02:07:58;9.70;;;4.45;;
52508;SDS011;38420;53.150;6.370;2023-05-31T02:10:23;10.13;;;5.07;;
52508;SDS011;38420;53.150;6.370;2023-05-31T02:12:49;9.77;;;4.70;;
52508;SDS011;38420;53.150;6.370;2023-05-31T02:15:19;14.97;;;4.63;;
52508;SDS011;38420;53.150;6.370;2023-05-31T02:17:46;7.93;;;4.80;;
52508;SDS011;38420;53.150;6.370;2023-05-31T02:20:16;7.50;;;4.45;;
52508;SDS011;38420;53.150;6.370;2023-05-31T02:22:43;11.13;;;5.07;;
52508;SDS011;38420;53.150;6.370;2023-05-31T02:25:10;9.82;;;5.45;;
52508;SDS011;38420;53.150;6.370;2023-05-31T02:27:37;7.95;;;4.72;;
52508;SDS011;38420;53.150;6.370;2023-05-31T02:30:03;8.82;;;4.80;;
52508;SDS011;38420;53.150;6.370;2023-05-31T02:32:30;8.70;;;5.25;;
52508;SDS011;38420;53.150;6.370;2023-05-31T02:35:05;9.25;;;4.40;;
52508;SDS011;38420;53.150;6.370;2023-05-31T02:37:32;9.02;;;4.57;;
52508;SDS011;38420;53.150;6.370;2023-05-31T02:39:58;11.63;;;5.18;;
52508;SDS011;38420;53.150;6.370;2023-05-31T02:42:24;7.45;;;4.43;;
52508;SDS011;38420;53.150;6.370;2023-05-31T02:44:50;12.02;;;5.45;;
52508;SDS011;38420;53.150;6.370;2023-05-31T02:47:15;8.30;;;4.72;;
52508;SDS011;38420;53.150;6.370;2023-05-31T02:49:41;12.07;;;5.38;;
52508;SDS011;38420;53.150;6.370;2023-05-31T02:52:07;10.55;;;4.95;;
52508;SDS011;38420;53.150;6.370;2023-05-31T02:54:33;8.68;;;4.90;;
52508;SDS011;38420;53.150;6.370;2023-05-31T02:56:58;10.15;;;4.88;;
52508;SDS011;38420;53.150;6.370;2023-05-31T02:59:24;8.93;;;4.40;;
52508;SDS011;38420;53.150;6.370;2023-05-31T03:01:50;13.55;;;5.20;;
52508;SDS011;38420;53.150;6.370;2023-05-31T03:04:16;9.63;;;4.75;;
52508;SDS011;38420;53.150;6.370;2023-05-31T03:06:42;9.55;;;4.47;;
52508;SDS011;38420;53.150;6.370;2023-05-31T03:09:08;10.23;;;5.32;;
52508;SDS011;38420;53.150;6.370;2023-05-31T03:11:39;12.88;;;5.57;;
52508;SDS011;38420;53.150;6.370;2023-05-31T03:14:04;11.98;;;5.20;;
52508;SDS011;38420;53.150;6.370;2023-05-31T03:16:30;11.35;;;5.65;;
52508;SDS011;38420;53.150;6.370;2023-05-31T03:18:55;11.68;;;6.07;;
52508;SDS011;38420;53.150;6.370;2023-05-31T03:21:21;15.43;;;5.93;;
52508;SDS011;38420;53.150;6.370;2023-05-31T03:23:46;11.15;;;5.70;;
52508;SDS011;38420;53.150;6.370;2023-05-31T03:26:12;13.88;;;5.57;;
52508;SDS011;38420;53.150;6.370;2023-05-31T03:28:37;14.25;;;6.80;;
52508;SDS011;38420;53.150;6.370;2023-05-31T03:31:03;14.00;;;6.13;;
52508;SDS011;38420;53.150;6.370;2023-05-31T03:33:29;16.15;;;6.70;;
52508;SDS011;38420;53.150;6.370;2023-05-31T03:35:55;13.13;;;6.03;;
52508;SDS011;38420;53.150;6.370;2023-05-31T03:38:21;17.30;;;6.72;;
52508;SDS011;38420;53.150;6.370;2023-05-31T03:40:47;10.27;;;6.18;;
52508;SDS011;38420;53.150;6.370;2023-05-31T03:43:12;16.25;;;6.50;;
52508;SDS011;38420;53.150;6.370;2023-05-31T03:45:38;15.45;;;6.30;;
52508;SDS011;38420;53.150;6.370;2023-05-31T03:48:03;11.50;;;7.03;;
52508;SDS011;38420;53.150;6.370;2023-05-31T03:50:29;16.60;;;6.55;;
52508;SDS011;38420;53.150;6.370;2023-05-31T03:52:55;15.38;;;6.97;;
52508;SDS011;38420;53.150;6.370;2023-05-31T03:55:20;14.35;;;6.40;;
52508;SDS011;38420;53.150;6.370;2023-05-31T03:57:46;12.65;;;6.57;;
52508;SDS011;38420;53.150;6.370;2023-05-31T04:00:12;14.65;;;7.25;;
52508;SDS011;38420;53.150;6.370;2023-05-31T04:02:39;16.75;;;7.28;;
52508;SDS011;38420;53.150;6.370;2023-05-31T04:05:05;13.90;;;6.60;;
52508;SDS011;38420;53.150;6.370;2023-05-31T04:07:31;16.00;;;6.35;;
52508;SDS011;38420;53.150;6.370;2023-05-31T04:09:57;16.13;;;7.32;;
52508;SDS011;38420;53.150;6.370;2023-05-31T04:12:23;12.50;;;6.85;;
52508;SDS011;38420;53.150;6.370;2023-05-31T04:14:49;15.80;;;7.10;;
52508;SDS011;38420;53.150;6.370;2023-05-31T04:17:14;14.07;;;6.55;;
52508;SDS011;38420;53.150;6.370;2023-05-31T04:19:40;15.20;;;6.88;;
52508;SDS011;38420;53.150;6.370;2023-05-31T04:22:06;16.42;;;8.27;;
52508;SDS011;38420;53.150;6.370;2023-05-31T04:24:31;14.38;;;7.13;;
52508;SDS011;38420;53.150;6.370;2023-05-31T04:26:57;19.30;;;7.00;;
52508;SDS011;38420;53.150;6.370;2023-05-31T04:29:23;13.13;;;7.10;;
52508;SDS011;38420;53.150;6.370;2023-05-31T04:31:50;15.95;;;7.22;;
52508;SDS011;38420;53.150;6.370;2023-05-31T04:34:16;15.32;;;7.50;;
52508;SDS011;38420;53.150;6.370;2023-05-31T04:36:43;13.50;;;7.07;;
52508;SDS011;38420;53.150;6.370;2023-05-31T04:39:14;17.00;;;7.43;;
52508;SDS011;38420;53.150;6.370;2023-05-31T04:41:41;13.73;;;7.70;;
52508;SDS011;38420;53.150;6.370;2023-05-31T04:44:06;15.75;;;6.65;;
52508;SDS011;38420;53.150;6.370;2023-05-31T04:46:32;14.30;;;7.05;;
52508;SDS011;38420;53.150;6.370;2023-05-31T04:48:58;16.13;;;7.03;;
52508;SDS011;38420;53.150;6.370;2023-05-31T04:51:25;13.88;;;6.80;;
52508;SDS011;38420;53.150;6.370;2023-05-31T04:53:52;15.80;;;6.78;;
52508;SDS011;38420;53.150;6.370;2023-05-31T04:56:17;13.93;;;6.65;;
52508;SDS011;38420;53.150;6.370;2023-05-31T04:58:43;14.65;;;6.72;;
52508;SDS011;38420;53.150;6.370;2023-05-31T05:01:09;17.23;;;7.43;;
52508;SDS011;38420;53.150;6.370;2023-05-31T05:03:37;14.85;;;6.80;;
52508;SDS011;38420;53.150;6.370;2023-05-31T05:06:13;15.85;;;6.43;;
52508;SDS011;38420;53.150;6.370;2023-05-31T05:08:40;16.42;;;6.93;;
52508;SDS011;38420;53.150;6.370;2023-05-31T05:11:06;18.98;;;7.68;;
52508;SDS011;38420;53.150;6.370;2023-05-31T05:13:32;14.65;;;7.03;;
52508;SDS011;38420;53.150;6.370;2023-05-31T05:15:58;13.93;;;6.95;;
52508;SDS011;38420;53.150;6.370;2023-05-31T05:18:23;13.90;;;7.20;;
52508;SDS011;38420;53.150;6.370;2023-05-31T05:20:49;18.35;;;7.15;;
52508;SDS011;38420;53.150;6.370;2023-05-31T05:23:14;14.48;;;6.28;;
52508;SDS011;38420;53.150;6.370;2023-05-31T05:25:40;16.65;;;8.02;;
52508;SDS011;38420;53.150;6.370;2023-05-31T05:28:06;12.38;;;6.30;;
52508;SDS011;38420;53.150;6.370;2023-05-31T05:30:31;19.55;;;7.18;;
52508;SDS011;38420;53.150;6.370;2023-05-31T05:32:57;17.92;;;7.35;;
52508;SDS011;38420;53.150;6.370;2023-05-31T05:35:23;15.15;;;6.88;;
52508;SDS011;38420;53.150;6.370;2023-05-31T05:37:49;14.90;;;6.97;;
52508;SDS011;38420;53.150;6.370;2023-05-31T05:40:15;19.02;;;7.63;;
52508;SDS011;38420;53.150;6.370;2023-05-31T05:42:41;13.90;;;7.15;;
52508;SDS011;38420;53.150;6.370;2023-05-31T05:45:06;16.63;;;6.63;;
52508;SDS011;38420;53.150;6.370;2023-05-31T05:47:33;18.83;;;8.52;;
52508;SDS011;38420;53.150;6.370;2023-05-31T05:50:00;17.38;;;7.28;;
52508;SDS011;38420;53.150;6.370;2023-05-31T05:52:26;27.45;;;7.90;;
52508;SDS011;38420;53.150;6.370;2023-05-31T05:54:51;20.42;;;5.97;;
52508;SDS011;38420;53.150;6.370;2023-05-31T05:57:17;16.73;;;6.80;;
52508;SDS011;38420;53.150;6.370;2023-05-31T05:59:44;15.48;;;6.50;;
52508;SDS011;38420;53.150;6.370;2023-05-31T06:02:10;15.27;;;5.82;;
52508;SDS011;38420;53.150;6.370;2023-05-31T06:04:36;12.80;;;5.65;;
52508;SDS011;38420;53.150;6.370;2023-05-31T06:07:02;15.23;;;5.95;;
52508;SDS011;38420;53.150;6.370;2023-05-31T06:09:28;14.32;;;6.13;;
52508;SDS011;38420;53.150;6.370;2023-05-31T06:11:54;12.20;;;5.45;;
52508;SDS011;38420;53.150;6.370;2023-05-31T06:14:19;15.20;;;6.78;;
52508;SDS011;38420;53.150;6.370;2023-05-31T06:16:45;15.93;;;6.20;;
52508;SDS011;38420;53.150;6.370;2023-05-31T06:19:11;21.60;;;6.97;;
52508;SDS011;38420;53.150;6.370;2023-05-31T06:21:36;15.05;;;6.25;;
52508;SDS011;38420;53.150;6.370;2023-05-31T06:24:02;16.77;;;6.65;;
52508;SDS011;38420;53.150;6.370;2023-05-31T06:26:28;17.05;;;7.30;;
52508;SDS011;38420;53.150;6.370;2023-05-31T06:28:54;12.35;;;6.05;;
52508;SDS011;38420;53.150;6.370;2023-05-31T06:31:19;14.48;;;6.78;;
52508;SDS011;38420;53.150;6.370;2023-05-31T06:33:45;19.60;;;6.85;;
52508;SDS011;38420;53.150;6.370;2023-05-31T06:36:10;14.70;;;7.03;;
52508;SDS011;38420;53.150;6.370;2023-05-31T06:38:36;14.95;;;6.45;;
52508;SDS011;38420;53.150;6.370;2023-05-31T06:41:01;16.17;;;6.15;;
52508;SDS011;38420;53.150;6.370;2023-05-31T06:43:27;12.13;;;5.97;;
52508;SDS011;38420;53.150;6.370;2023-05-31T06:45:53;17.40;;;6.13;;
52508;SDS011;38420;53.150;6.370;2023-05-31T06:48:18;10.10;;;5.13;;
52508;SDS011;38420;53.150;6.370;2023-05-31T06:50:44;13.25;;;5.10;;
52508;SDS011;38420;53.150;6.370;2023-05-31T06:53:09;9.80;;;5.03;;
52508;SDS011;38420;53.150;6.370;2023-05-31T06:55:37;12.95;;;5.28;;
52508;SDS011;38420;53.150;6.370;2023-05-31T06:58:03;11.07;;;4.65;;
52508;SDS011;38420;53.150;6.370;2023-05-31T07:00:29;12.15;;;4.90;;
52508;SDS011;38420;53.150;6.370;2023-05-31T07:02:55;12.65;;;4.80;;
52508;SDS011;38420;53.150;6.370;2023-05-31T07:05:20;9.15;;;4.50;;
52508;SDS011;38420;53.150;6.370;2023-05-31T07:07:46;7.03;;;3.90;;
52508;SDS011;38420;53.150;6.370;2023-05-31T07:10:12;9.23;;;4.35;;
52508;SDS011;38420;53.150;6.370;2023-05-31T07:12:38;7.60;;;3.17;;
52508;SDS011;38420;53.150;6.370;2023-05-31T07:15:04;8.48;;;3.60;;
52508;SDS011;38420;53.150;6.370;2023-05-31T07:17:30;8.05;;;3.92;;
52508;SDS011;38420;53.150;6.370;2023-05-31T07:19:56;10.10;;;3.60;;
52508;SDS011;38420;53.150;6.370;2023-05-31T07:22:21;10.73;;;3.47;;
52508;SDS011;38420;53.150;6.370;2023-05-31T07:24:47;10.05;;;3.45;;
52508;SDS011;38420;53.150;6.370;2023-05-31T07:27:13;10.13;;;3.20;;
52508;SDS011;38420;53.150;6.370;2023-05-31T07:29:39;12.25;;;5.18;;
52508;SDS011;38420;53.150;6.370;2023-05-31T07:32:04;7.00;;;3.00;;
52508;SDS011;38420;53.150;6.370;2023-05-31T07:34:30;8.25;;;3.45;;
52508;SDS011;38420;53.150;6.370;2023-05-31T07:36:56;6.15;;;2.90;;
52508;SDS011;38420;53.150;6.370;2023-05-31T07:39:22;11.63;;;3.28;;
52508;SDS011;38420;53.150;6.370;2023-05-31T07:41:48;7.07;;;3.28;;
52508;SDS011;38420;53.150;6.370;2023-05-31T07:44:14;10.07;;;3.50;;
52508;SDS011;38420;53.150;6.370;2023-05-31T07:46:41;5.60;;;2.85;;
52508;SDS011;38420;53.150;6.370;2023-05-31T07:49:07;6.40;;;2.78;;
52508;SDS011;38420;53.150;6.370;2023-05-31T07:51:33;7.35;;;3.28;;
52508;SDS011;38420;53.150;6.370;2023-05-31T07:53:59;8.73;;;3.28;;
52508;SDS011;38420;53.150;6.370;2023-05-31T07:56:24;7.78;;;3.25;;
52508;SDS011;38420;53.150;6.370;2023-05-31T07:58:50;9.68;;;3.10;;
52508;SDS011;38420;53.150;6.370;2023-05-31T08:01:16;7.20;;;3.25;;
52508;SDS011;38420;53.150;6.370;2023-05-31T08:03:42;6.97;;;2.75;;
52508;SDS011;38420;53.150;6.370;2023-05-31T08:06:08;6.90;;;3.10;;
52508;SDS011;38420;53.150;6.370;2023-05-31T08:08:34;8.68;;;3.88;;
52508;SDS011;38420;53.150;6.370;2023-05-31T08:11:00;6.50;;;4.50;;
52508;SDS011;38420;53.150;6.370;2023-05-31T08:13:26;6.05;;;4.15;;
52508;SDS011;38420;53.150;6.370;2023-05-31T08:15:53;8.43;;;4.38;;
52508;SDS011;38420;53.150;6.370;2023-05-31T08:18:19;9.57;;;4.57;;
52508;SDS011;38420;53.150;6.370;2023-05-31T08:20:44;8.85;;;4.28;;
52508;SDS011;38420;53.150;6.370;2023-05-31T08:23:20;8.48;;;4.30;;
52508;SDS011;38420;53.150;6.370;2023-05-31T08:25:46;10.38;;;4.25;;
52508;SDS011;38420;53.150;6.370;2023-05-31T08:28:12;8.25;;;4.28;;
52508;SDS011;38420;53.150;6.370;2023-05-31T08:30:38;9.85;;;5.00;;
52508;SDS011;38420;53.150;6.370;2023-05-31T08:33:03;9.25;;;4.57;;
52508;SDS011;38420;53.150;6.370;2023-05-31T08:35:29;15.20;;;5.05;;
52508;SDS011;38420;53.150;6.370;2023-05-31T08:37:55;10.23;;;5.18;;
52508;SDS011;38420;53.150;6.370;2023-05-31T08:40:21;13.95;;;5.47;;
52508;SDS011;38420;53.150;6.370;2023-05-31T08:43:00;8.15;;;4.20;;
52508;SDS011;38420;53.150;6.370;2023-05-31T08:45:33;10.73;;;5.00;;
52508;SDS011;38420;53.150;6.370;2023-05-31T08:50:34;7.43;;;4.10;;
52508;SDS011;38420;53.150;6.370;2023-05-31T08:53:00;7.68;;;4.03;;
52508;SDS011;38420;53.150;6.370;2023-05-31T08:55:27;5.90;;;3.63;;
52508;SDS011;38420;53.150;6.370;2023-05-31T08:57:54;13.48;;;4.45;;
52508;SDS011;38420;53.150;6.370;2023-05-31T09:00:21;9.43;;;3.47;;
52508;SDS011;38420;53.150;6.370;2023-05-31T09:02:48;8.25;;;3.13;;
52508;SDS011;38420;53.150;6.370;2023-05-31T09:05:15;7.70;;;3.25;;
52508;SDS011;38420;53.150;6.370;2023-05-31T09:07:41;5.65;;;2.30;;
52508;SDS011;38420;53.150;6.370;2023-05-31T09:10:07;5.72;;;2.45;;
52508;SDS011;38420;53.150;6.370;2023-05-31T09:12:34;4.53;;;2.10;;
52508;SDS011;38420;53.150;6.370;2023-05-31T09:15:03;7.60;;;3.35;;
52508;SDS011;38420;53.150;6.370;2023-05-31T09:17:31;6.60;;;2.63;;
52508;SDS011;38420;53.150;6.370;2023-05-31T09:19:58;9.77;;;3.40;;
52508;SDS011;38420;53.150;6.370;2023-05-31T09:22:25;10.13;;;3.05;;
52508;SDS011;38420;53.150;6.370;2023-05-31T09:24:54;12.10;;;3.72;;
52508;SDS011;38420;53.150;6.370;2023-05-31T09:27:22;13.52;;;3.65;;
52508;SDS011;38420;53.150;6.370;2023-05-31T09:29:51;9.32;;;3.30;;
52508;SDS011;38420;53.150;6.370;2023-05-31T09:32:18;10.52;;;4.55;;
52508;SDS011;38420;53.150;6.370;2023-05-31T09:34:44;8.70;;;3.65;;
52508;SDS011;38420;53.150;6.370;2023-05-31T09:37:14;10.00;;;4.35;;
52508;SDS011;38420;53.150;6.370;2023-05-31T09:39:57;9.93;;;4.65;;
52508;SDS011;38420;53.150;6.370;2023-05-31T09:42:26;10.05;;;3.80;;
52508;SDS011;38420;53.150;6.370;2023-05-31T09:44:53;10.70;;;3.97;;
52508;SDS011;38420;53.150;6.370;2023-05-31T09:47:23;7.22;;;4.10;;
52508;SDS011;38420;53.150;6.370;2023-05-31T09:49:50;10.55;;;4.05;;
52508;SDS011;38420;53.150;6.370;2023-05-31T09:52:20;8.70;;;4.35;;
52508;SDS011;38420;53.150;6.370;2023-05-31T09:54:54;11.68;;;4.50;;
52508;SDS011;38420;53.150;6.370;2023-05-31T09:57:28;13.15;;;4.03;;
52508;SDS011;38420;53.150;6.370;2023-05-31T09:59:58;10.15;;;4.97;;
52508;SDS011;38420;53.150;6.370;2023-05-31T10:02:30;11.00;;;4.80;;
52508;SDS011;38420;53.150;6.370;2023-05-31T10:04:55;9.70;;;4.90;;
52508;SDS011;38420;53.150;6.370;2023-05-31T10:07:22;12.50;;;4.47;;
52508;SDS011;38420;53.150;6.370;2023-05-31T10:09:47;9.82;;;4.40;;
52508;SDS011;38420;53.150;6.370;2023-05-31T10:12:13;12.50;;;4.45;;
52508;SDS011;38420;53.150;6.370;2023-05-31T10:14:42;9.35;;;3.95;;
52508;SDS011;38420;53.150;6.370;2023-05-31T10:17:14;9.80;;;4.28;;
52508;SDS011;38420;53.150;6.370;2023-05-31T10:19:46;7.40;;;3.85;;
52508;SDS011;38420;53.150;6.370;2023-05-31T10:22:18;14.00;;;5.15;;
52508;SDS011;38420;53.150;6.370;2023-05-31T10:24:51;12.43;;;4.60;;
52508;SDS011;38420;53.150;6.370;2023-05-31T10:27:28;13.60;;;5.60;;
52508;SDS011;38420;53.150;6.370;2023-05-31T10:29:56;12.35;;;6.03;;
52508;SDS011;38420;53.150;6.370;2023-05-31T10:32:31;18.85;;;5.68;;
52508;SDS011;38420;53.150;6.370;2023-05-31T10:34:59;9.88;;;4.93;;
52508;SDS011;38420;53.150;6.370;2023-05-31T10:37:25;12.27;;;5.95;;
52508;SDS011;38420;53.150;6.370;2023-05-31T10:42:46;12.90;;;6.82;;
52508;SDS011;38420;53.150;6.370;2023-05-31T10:45:44;14.50;;;6.80;;
52508;SDS011;38420;53.150;6.370;2023-05-31T10:51:04;15.70;;;6.95;;
52508;SDS011;38420;53.150;6.370;2023-05-31T10:53:35;16.17;;;7.22;;
52508;SDS011;38420;53.150;6.370;2023-05-31T10:56:02;12.52;;;7.05;;
52508;SDS011;38420;53.150;6.370;2023-05-31T11:01:04;19.95;;;8.10;;
52508;SDS011;38420;53.150;6.370;2023-05-31T11:03:32;21.35;;;8.25;;
52508;SDS011;38420;53.150;6.370;2023-05-31T11:06:08;26.92;;;10.20;;
52508;SDS011;38420;53.150;6.370;2023-05-31T11:08:36;25.42;;;9.50;;
52508;SDS011;38420;53.150;6.370;2023-05-31T11:16:27;11.77;;;6.53;;
52508;SDS011;38420;53.150;6.370;2023-05-31T11:19:05;13.45;;;5.43;;
52508;SDS011;38420;53.150;6.370;2023-05-31T11:21:48;10.93;;;5.50;;
52508;SDS011;38420;53.150;6.370;2023-05-31T11:26:58;8.95;;;5.22;;
52508;SDS011;38420;53.150;6.370;2023-05-31T11:29:51;12.40;;;5.45;;
52508;SDS011;38420;53.150;6.370;2023-05-31T11:32:13;11.85;;;5.25;;
52508;SDS011;38420;53.150;6.370;2023-05-31T11:34:50;10.38;;;5.28;;
52508;SDS011;38420;53.150;6.370;2023-05-31T11:39:54;13.85;;;6.75;;
52508;SDS011;38420;53.150;6.370;2023-05-31T11:42:23;11.27;;;5.45;;
52508;SDS011;38420;53.150;6.370;2023-05-31T11:44:49;6.63;;;4.45;;
52508;SDS011;38420;53.150;6.370;2023-05-31T11:47:19;11.13;;;4.28;;
52508;SDS011;38420;53.150;6.370;2023-05-31T11:49:46;9.83;;;4.37;;
52508;SDS011;38420;53.150;6.370;2023-05-31T11:52:16;9.57;;;4.80;;
52508;SDS011;38420;53.150;6.370;2023-05-31T11:54:43;9.88;;;4.90;;
52508;SDS011;38420;53.150;6.370;2023-05-31T11:57:10;9.93;;;5.00;;
52508;SDS011;38420;53.150;6.370;2023-05-31T11:59:37;12.73;;;5.55;;
52508;SDS011;38420;53.150;6.370;2023-05-31T12:02:04;13.77;;;5.70;;
52508;SDS011;38420;53.150;6.370;2023-05-31T12:04:31;12.45;;;5.25;;
52508;SDS011;38420;53.150;6.370;2023-05-31T12:06:57;10.73;;;5.35;;
52508;SDS011;38420;53.150;6.370;2023-05-31T12:09:26;12.27;;;5.55;;
52508;SDS011;38420;53.150;6.370;2023-05-31T12:11:56;14.68;;;6.13;;
52508;SDS011;38420;53.150;6.370;2023-05-31T12:14:22;12.45;;;5.00;;
52508;SDS011;38420;53.150;6.370;2023-05-31T12:16:50;11.05;;;5.07;;
52508;SDS011;38420;53.150;6.370;2023-05-31T12:19:16;12.15;;;5.40;;
52508;SDS011;38420;53.150;6.370;2023-05-31T12:21:42;9.00;;;5.00;;
52508;SDS011;38420;53.150;6.370;2023-05-31T12:24:12;15.25;;;5.80;;
52508;SDS011;38420;53.150;6.370;2023-05-31T12:26:44;9.90;;;5.25;;
52508;SDS011;38420;53.150;6.370;2023-05-31T12:29:13;10.20;;;4.97;;
52508;SDS011;38420;53.150;6.370;2023-05-31T12:31:40;14.45;;;5.70;;
52508;SDS011;38420;53.150;6.370;2023-05-31T12:36:45;11.75;;;5.55;;
52508;SDS011;38420;53.150;6.370;2023-05-31T12:39:18;10.77;;;5.45;;
52508;SDS011;38420;53.150;6.370;2023-05-31T12:41:46;11.73;;;5.40;;
52508;SDS011;38420;53.150;6.370;2023-05-31T12:44:13;9.48;;;4.80;;
52508;SDS011;38420;53.150;6.370;2023-05-31T12:49:25;10.75;;;4.13;;
52508;SDS011;38420;53.150;6.370;2023-05-31T12:51:58;8.95;;;4.45;;
52508;SDS011;38420;53.150;6.370;2023-05-31T12:54:32;10.27;;;4.32;;
52508;SDS011;38420;53.150;6.370;2023-05-31T12:56:59;14.18;;;4.47;;
52508;SDS011;38420;53.150;6.370;2023-05-31T12:59:27;9.82;;;4.25;;
52508;SDS011;38420;53.150;6.370;2023-05-31T13:01:56;8.48;;;4.82;;
52508;SDS011;38420;53.150;6.370;2023-05-31T13:04:23;12.82;;;5.47;;
52508;SDS011;38420;53.150;6.370;2023-05-31T13:06:50;11.05;;;5.40;;
52508;SDS011;38420;53.150;6.370;2023-05-31T13:09:16;18.55;;;7.88;;
52508;SDS011;38420;53.150;6.370;2023-05-31T13:11:42;11.82;;;5.60;;
52508;SDS011;38420;53.150;6.370;2023-05-31T13:14:08;12.40;;;5.80;;
52508;SDS011;38420;53.150;6.370;2023-05-31T13:16:38;9.73;;;5.07;;
52508;SDS011;38420;53.150;6.370;2023-05-31T13:19:04;13.18;;;5.10;;
52508;SDS011;38420;53.150;6.370;2023-05-31T13:21:31;8.50;;;5.20;;
52508;SDS011;38420;53.150;6.370;2023-05-31T13:23:58;11.68;;;5.18;;
52508;SDS011;38420;53.150;6.370;2023-05-31T13:26:24;9.40;;;4.65;;
52508;SDS011;38420;53.150;6.370;2023-05-31T13:28:54;13.18;;;4.90;;
52508;SDS011;38420;53.150;6.370;2023-05-31T13:33:51;9.52;;;4.05;;
52508;SDS011;38420;53.150;6.370;2023-05-31T13:36:18;13.27;;;4.35;;
52508;SDS011;38420;53.150;6.370;2023-05-31T13:38:50;12.30;;;5.03;;
52508;SDS011;38420;53.150;6.370;2023-05-31T13:41:17;17.92;;;5.50;;
52508;SDS011;38420;53.150;6.370;2023-05-31T13:43:43;14.75;;;6.90;;
52508;SDS011;38420;53.150;6.370;2023-05-31T13:46:08;10.93;;;5.70;;
52508;SDS011;38420;53.150;6.370;2023-05-31T13:48:36;12.82;;;5.45;;
52508;SDS011;38420;53.150;6.370;2023-05-31T13:51:02;10.50;;;4.18;;
52508;SDS011;38420;53.150;6.370;2023-05-31T13:53:28;9.70;;;4.45;;
52508;SDS011;38420;53.150;6.370;2023-05-31T13:55:54;9.50;;;4.03;;
52508;SDS011;38420;53.150;6.370;2023-05-31T13:58:20;10.13;;;4.10;;
52508;SDS011;38420;53.150;6.370;2023-05-31T14:00:46;6.47;;;3.78;;
52508;SDS011;38420;53.150;6.370;2023-05-31T14:03:12;7.45;;;3.80;;
52508;SDS011;38420;53.150;6.370;2023-05-31T14:05:38;7.85;;;2.97;;
52508;SDS011;38420;53.150;6.370;2023-05-31T14:08:04;7.78;;;3.03;;
52508;SDS011;38420;53.150;6.370;2023-05-31T14:10:31;6.22;;;3.42;;
52508;SDS011;38420;53.150;6.370;2023-05-31T14:12:58;9.38;;;3.90;;
52508;SDS011;38420;53.150;6.370;2023-05-31T14:15:24;6.05;;;3.28;;
52508;SDS011;38420;53.150;6.370;2023-05-31T14:17:50;10.50;;;3.85;;
52508;SDS011;38420;53.150;6.370;2023-05-31T14:20:16;10.23;;;3.60;;
52508;SDS011;38420;53.150;6.370;2023-05-31T14:22:41;7.30;;;3.33;;
52508;SDS011;38420;53.150;6.370;2023-05-31T14:25:07;7.13;;;4.00;;
52508;SDS011;38420;53.150;6.370;2023-05-31T14:27:33;10.38;;;3.67;;
52508;SDS011;38420;53.150;6.370;2023-05-31T14:29:58;8.43;;;3.80;;
52508;SDS011;38420;53.150;6.370;2023-05-31T14:32:24;11.48;;;3.60;;
52508;SDS011;38420;53.150;6.370;2023-05-31T14:34:49;6.25;;;3.70;;
52508;SDS011;38420;53.150;6.370;2023-05-31T14:37:15;7.07;;;2.75;;
52508;SDS011;38420;53.150;6.370;2023-05-31T14:39:41;8.73;;;3.75;;
52508;SDS011;38420;53.150;6.370;2023-05-31T14:42:07;11.25;;;3.63;;
52508;SDS011;38420;53.150;6.370;2023-05-31T14:44:33;9.13;;;3.60;;
52508;SDS011;38420;53.150;6.370;2023-05-31T14:47:00;5.75;;;2.95;;
52508;SDS011;38420;53.150;6.370;2023-05-31T14:49:26;11.00;;;3.67;;
52508;SDS011;38420;53.150;6.370;2023-05-31T14:51:52;7.32;;;3.22;;
52508;SDS011;38420;53.150;6.370;2023-05-31T14:54:18;6.30;;;3.33;;
52508;SDS011;38420;53.150;6.370;2023-05-31T14:56:44;8.60;;;3.28;;
52508;SDS011;38420;53.150;6.370;2023-05-31T14:59:10;6.82;;;2.80;;
52508;SDS011;38420;53.150;6.370;2023-05-31T15:01:36;10.43;;;3.53;;
52508;SDS011;38420;53.150;6.370;2023-05-31T15:04:14;6.82;;;3.22;;
52508;SDS011;38420;53.150;6.370;2023-05-31T15:06:41;8.18;;;3.55;;
52508;SDS011;38420;53.150;6.370;2023-05-31T15:09:07;7.57;;;3.33;;
52508;SDS011;38420;53.150;6.370;2023-05-31T15:11:35;5.57;;;3.00;;
52508;SDS011;38420;53.150;6.370;2023-05-31T15:14:01;6.18;;;3.47;;
52508;SDS011;38420;53.150;6.370;2023-05-31T15:16:27;6.50;;;2.58;;
52508;SDS011;38420;53.150;6.370;2023-05-31T15:18:53;10.73;;;3.97;;
52508;SDS011;38420;53.150;6.370;2023-05-31T15:21:19;7.60;;;3.78;;